Flight Track Log - Related Links

Times and Time Zones

All times are in EDT time to prevent confusion due to time zone crossing. See the SWA1231 flight status page for this flight to view local times or setup timezone preferences in your user account.

Time Position Orientation Groundspeed Altitude Reporting Facility
EDT Latitude Longitude Course Direction KTS MPH feet Rate Location/Type
Fri 12:36:19 PM 30.1528 -97.5289 46° Northeast 275 316 8,200  Level Houston Center
Fri 12:37:21 PM 30.2225 -97.4758 33° Northeast 296 341 10,800 2,419 Climbing Houston Center
Fri 12:38:23 PM 30.3128 -97.4319 23° Northeast 343 395 13,200 2,323 Climbing Houston Center
Fri 12:39:00 PM 30.5868 -97.2632 41° Northeast  Level FlightAware Approximate
Fri 12:39:25 PM 30.4006 -97.3639 34° Northeast 380 437 15,600  Level Houston Center
Fri 12:40:00 PM 30.6473 -97.1860 41° Northeast  Level FlightAware Approximate
Fri 12:40:27 PM 30.4811 -97.2778 43° Northeast 392 451 18,000  Level Houston Center
Fri 12:41:29 PM 30.5667 -97.1889 42° Northeast 406 467 19,800 1,935 Climbing Houston Center
Fri 12:42:31 PM 30.6722 -97.0778 42° Northeast 436 502 22,000 1,065 Climbing Houston Center
Fri 12:43:33 PM 30.7653 -96.9794 42° Northeast 452 520 22,000  Level Houston Center
Fri 12:44:35 PM 30.8608 -96.8772 43° Northeast 467 537 22,000  Level Houston Center
Fri 12:45:38 PM 30.9558 -96.7769 42° Northeast 465 535 22,000  Level Houston Center
Fri 12:46:40 PM 31.0506 -96.6742 43° Northeast 465 535 22,000  Level Houston Center
Fri 12:47:42 PM 31.1611 -96.5594 42° Northeast 457 526 22,000  Level Houston Center
Fri 12:48:44 PM 31.2544 -96.4572 43° Northeast 458 527 22,000  Level Houston Center
Fri 12:49:46 PM 31.3475 -96.3583 42° Northeast 452 520 22,000  Level Houston Center
Fri 12:50:31 PM 31.4361 -96.3103 25° Northeast 439 505 22,000  Level Fort Worth Center
Fri 12:51:31 PM 31.5361 -96.2944 North 406 467 22,000  Level Fort Worth Center
Fri 12:52:31 PM 31.6531 -96.2833 North 411 473 22,000 -150 Level Fort Worth Center
Fri 12:53:31 PM 31.7636 -96.2869 358° North 404 465 21,700 -950 Descending Fort Worth Center
Fri 12:54:31 PM 31.8661 -96.3003 354° North 377 434 20,100 -1,800 Descending Fort Worth Center
Fri 12:55:31 PM 31.9642 -96.3139 353° North 357 411 18,100 -1,900 Descending Fort Worth Center
Fri 12:56:31 PM 32.0606 -96.3250 354° North 348 400 16,300 -1,900 Descending Fort Worth Center
Fri 12:57:31 PM 32.1503 -96.3361 354° North 335 386 14,300 -1,900 Descending Fort Worth Center
Fri 12:58:31 PM 32.2486 -96.3472 355° North 330 380 12,500 -1,900 Descending Fort Worth Center
Fri 12:59:31 PM 32.3383 -96.3586 354° North 320 368 10,500 -1,600 Descending Fort Worth Center
Fri 01:00:31 PM 32.4178 -96.3700 353° North 305 351 9,300 -1,050 Descending Fort Worth Center
Fri 01:01:31 PM 32.4933 -96.4061 338° Northwest 288 331 8,400 -1,000 Descending Fort Worth Center
Fri 01:02:31 PM 32.5644 -96.4472 334° Northwest 283 326 7,300 -1,100 Descending Fort Worth Center
Fri 01:03:31 PM 32.6317 -96.4883 333° Northwest 283 326 6,200 -1,000 Descending Fort Worth Center
Fri 01:04:31 PM 32.6906 -96.5397 324° Northwest 272 313 5,300 -600 Descending Fort Worth Center
Fri 01:05:31 PM 32.7389 -96.5958 316° Northwest 262 302 5,000 -150 Descending Fort Worth Center
Fri 01:06:31 PM 32.7956 -96.6622 315° West 262 302 5,000  Level Fort Worth Center
Fri 01:06:55 PM 32.8167 -96.6833 320° Northwest 264 304 5,000 -786 Level Dallas / Fort Worth TRACON
Fri 01:07:55 PM 32.8667 -96.7500 312° West 254 292 3,900 -1,000 Descending Dallas / Fort Worth TRACON
Fri 01:08:49 PM 32.9167 -96.7833 331° Northwest 242 278 3,100 -474 Descending Dallas / Fort Worth TRACON
Fri 01:09:49 PM 32.9667 -96.8500 312° West 220 253 3,000 -365 Descending Dallas / Fort Worth TRACON
Fri 01:10:44 PM 32.9333 -96.9000 232° Southwest 220 253 2,400 -716 Descending Dallas / Fort Worth TRACON
Fri 01:11:38 PM 32.8833 -96.9000 180° South 173 199 1,700 -778 Descending Dallas / Fort Worth TRACON
Fri 01:13:00 PM 32.8471 -96.8518 301° West  Level Estimated
Fri 01:20:00 PM 32.8471 -96.8518 301° West  Level Estimated
Fri 01:21:00 PM 32.8471 -96.8518 301° West  Level Estimated
Fri 01:22:00 PM 32.8471 -96.8518 301° West  Level Estimated

Login

Don't have an account? Register now (free) for customized features, flight alerts, and more!